Time;durP1;ratioP1;P1;durP2;ratioP2;P2;SDS_P1;SDS_P2;PMS_P1;PMS_P2;Temp;Humidity;BMP_temperature;BMP_pressure;BME280_temperature;BME280_humidity;BME280_pressure;Samples;Min_cycle;Max_cycle;Signal;HPM_P1;HPM_P2
2022/01/17 00:02:19;;;;;;;11.67;6.50;;;;;;;5.48;90.10;101662.47;5040136;28;20205;-68
2022/01/17 00:04:46;;;;;;;14.17;7.37;;;;;;;5.49;89.99;101671.25;5039013;28;20206;-68
2022/01/17 00:07:14;;;;;;;12.90;7.20;;;;;;;5.49;90.03;101674.75;5038841;28;20225;-68
2022/01/17 00:09:40;;;;;;;10.93;6.30;;;;;;;5.49;89.56;101669.47;5045385;28;20216;-69
2022/01/17 00:12:09;;;;;;;10.50;7.00;;;;;;;5.50;89.86;101673.84;5043036;28;20229;-70
2022/01/17 00:14:40;;;;;;;9.57;6.13;;;;;;;5.51;89.82;101664.16;5039759;28;20251;-69
2022/01/17 00:17:22;;;;;;;11.10;6.53;;;;;;;5.52;89.36;101664.13;5040762;28;20239;-69
2022/01/17 00:19:53;;;;;;;12.37;7.73;;;;;;;5.53;89.51;101671.16;5040350;28;20256;-70
2022/01/17 00:22:25;;;;;;;11.37;6.87;;;;;;;5.50;89.52;101671.22;5041448;28;20667;-68
2022/01/17 00:24:51;;;;;;;11.03;6.43;;;;;;;5.53;89.35;101673.78;5037434;28;20214;-69
2022/01/17 00:27:18;;;;;;;13.13;6.90;;;;;;;5.55;89.34;101690.44;5036847;28;20206;-71
2022/01/17 00:29:44;;;;;;;10.90;5.50;;;;;;;5.55;89.27;101697.53;5040521;28;20588;-69
2022/01/17 00:32:11;;;;;;;10.73;6.77;;;;;;;5.54;89.20;101711.66;5033467;28;20403;-72
2022/01/17 00:34:37;;;;;;;11.03;5.50;;;;;;;5.54;89.32;101720.44;5044041;28;20209;-69
2022/01/17 00:37:04;;;;;;;10.33;5.87;;;;;;;5.56;89.23;101717.72;5044031;28;20213;-67
2022/01/17 00:39:32;;;;;;;8.30;5.60;;;;;;;5.57;89.19;101728.25;5039783;28;20587;-71
2022/01/17 00:41:58;;;;;;;7.77;5.13;;;;;;;5.56;89.17;101729.16;5036768;28;20237;-69
2022/01/17 00:44:25;;;;;;;9.07;5.13;;;;;;;5.57;89.03;101725.63;5043210;28;20214;-70
2022/01/17 00:46:52;;;;;;;8.77;4.43;;;;;;;5.59;89.17;101736.16;5042980;28;20209;-70
2022/01/17 00:49:19;;;;;;;7.87;3.80;;;;;;;5.59;88.85;101718.53;5045625;28;20580;-69
2022/01/17 00:51:46;;;;;;;5.90;3.50;;;;;;;5.57;88.78;101714.19;5053260;28;20216;-70
2022/01/17 00:54:12;;;;;;;6.20;3.67;;;;;;;5.58;88.95;101711.50;5056561;28;20658;-70
2022/01/17 00:56:40;;;;;;;4.60;2.83;;;;;;;5.57;88.88;101703.63;5045540;28;20297;-69
2022/01/17 00:59:07;;;;;;;4.67;2.30;;;;;;;5.55;88.43;101701.00;5056605;28;20229;-69
2022/01/17 01:01:33;;;;;;;4.27;2.30;;;;;;;5.58;88.64;101693.00;5045747;28;20229;-69
2022/01/17 01:04:00;;;;;;;4.93;1.90;;;;;;;5.56;88.13;101691.31;5048381;28;20212;-71
2022/01/17 01:06:26;;;;;;;4.63;1.67;;;;;;;5.50;87.30;101697.63;5054061;28;20210;-70
2022/01/17 01:08:53;;;;;;;2.87;1.30;;;;;;;5.45;86.82;101686.31;5039523;28;20679;-70
2022/01/17 01:11:20;;;;;;;5.17;1.33;;;;;;;5.44;87.07;101689.84;5046055;28;20233;-70
2022/01/17 01:13:47;;;;;;;3.80;1.27;;;;;;;5.39;86.03;101699.66;5056819;28;20216;-68
2022/01/17 01:16:31;;;;;;;3.07;0.93;;;;;;;5.42;86.03;101710.16;5063264;28;20300;-71
2022/01/17 01:27:38;;;;;;;3.07;0.93;;;;;;;5.38;85.53;101702.34;5001665;28;20738;-71
2022/01/17 01:30:28;;;;;;;4.30;1.30;;;;;;;5.35;84.79;101718.31;4999887;28;20238;-71
2022/01/17 01:32:57;;;;;;;2.93;1.10;;;;;;;5.34;84.78;101712.16;5039306;28;20218;-70
2022/01/17 01:35:27;;;;;;;3.00;1.03;;;;;;;5.35;84.78;101728.88;5038456;28;20206;-69
2022/01/17 01:37:53;;;;;;;4.30;0.97;;;;;;;5.33;84.82;101710.41;5037190;28;20245;-69
2022/01/17 01:40:21;;;;;;;2.93;0.87;;;;;;;5.31;84.67;101720.13;5036783;28;20234;-70
2022/01/17 01:42:51;;;;;;;6.30;1.60;;;;;;;5.31;84.61;101721.91;5032555;28;20229;-69
2022/01/17 01:45:18;;;;;;;3.73;1.20;;;;;;;5.31;84.83;101732.47;5048357;28;20201;-69
2022/01/17 01:47:46;;;;;;;4.97;1.43;;;;;;;5.31;85.19;101701.66;5043945;28;20406;-69
2022/01/17 01:50:13;;;;;;;5.53;1.63;;;;;;;5.33;85.03;101713.06;5053536;28;20225;-70
2022/01/17 01:52:42;;;;;;;4.43;1.10;;;;;;;5.28;85.15;101701.72;5044811;28;20214;-69
2022/01/17 01:55:11;;;;;;;4.50;1.10;;;;;;;5.28;85.04;101698.22;5041070;28;20214;-69
2022/01/17 01:57:37;;;;;;;5.40;1.17;;;;;;;5.27;85.08;101694.69;5037910;28;20214;-68
2022/01/17 02:00:06;;;;;;;4.53;1.07;;;;;;;5.27;84.89;101699.13;5035124;28;20214;-70
2022/01/17 02:02:33;;;;;;;5.23;1.20;;;;;;;5.28;84.89;101677.09;5033497;28;20652;-69
2022/01/17 02:05:01;;;;;;;2.83;0.70;;;;;;;5.24;84.66;101663.94;5033767;28;20683;-69
2022/01/17 02:07:27;;;;;;;2.50;0.73;;;;;;;5.18;83.51;101682.59;5033304;28;20209;-69
2022/01/17 02:09:54;;;;;;;3.63;1.03;;;;;;;5.17;83.41;101698.50;5037623;28;20210;-68
2022/01/17 02:12:21;;;;;;;2.63;0.73;;;;;;;5.18;83.46;101689.66;5086787;22;20737;-69
2022/01/17 02:14:48;;;;;;;5.83;0.90;;;;;;;5.18;83.14;101685.25;5054848;28;20244;-69
2022/01/17 02:17:16;;;;;;;4.27;1.20;;;;;;;5.18;82.63;101710.78;5058493;28;20209;-69
2022/01/17 02:19:46;;;;;;;6.00;1.00;;;;;;;5.14;82.29;101704.72;5065486;28;20707;-69
2022/01/17 02:22:14;;;;;;;7.87;1.20;;;;;;;5.16;81.61;101715.22;5051477;28;20240;-70
2022/01/17 02:24:41;;;;;;;4.83;0.90;;;;;;;5.13;81.04;101732.00;5050856;28;20229;-68
2022/01/17 02:27:07;;;;;;;5.30;0.90;;;;;;;5.14;81.35;101736.41;5045629;28;20229;-69
2022/01/17 02:29:34;;;;;;;5.93;1.33;;;;;;;5.16;81.43;101731.09;5040968;28;20202;-70
2022/01/17 02:32:01;;;;;;;8.10;1.40;;;;;;;5.18;81.12;101721.34;5031375;28;20233;-69
2022/01/17 02:34:27;;;;;;;5.23;1.07;;;;;;;5.20;81.14;101720.38;5046988;28;20218;-69
2022/01/17 02:36:54;;;;;;;7.20;1.13;;;;;;;5.21;81.27;101718.59;5026988;28;20207;-70
2022/01/17 02:39:22;;;;;;;5.33;1.07;;;;;;;5.20;81.17;101717.75;5037006;28;20226;-70
2022/01/17 02:41:49;;;;;;;4.83;1.10;;;;;;;5.23;81.12;101714.16;5020961;28;20231;-68
2022/01/17 02:44:16;;;;;;;6.53;1.20;;;;;;;5.27;81.05;101693.84;5020729;28;20209;-69
2022/01/17 02:46:43;;;;;;;5.00;0.90;;;;;;;5.23;80.79;101685.13;5032720;28;20702;-69
2022/01/17 02:49:10;;;;;;;9.07;1.20;;;;;;;5.23;80.94;101667.50;5041667;28;20216;-70
2022/01/17 02:51:37;;;;;;;5.80;1.30;;;;;;;5.22;80.72;101656.97;5022793;28;20233;-69
2022/01/17 02:54:04;;;;;;;5.40;1.33;;;;;;;5.24;80.92;101647.22;5039712;28;20675;-69
2022/01/17 02:56:33;;;;;;;9.70;1.07;;;;;;;5.23;80.76;101650.78;5049042;28;20205;-69
2022/01/17 02:58:59;;;;;;;4.30;1.03;;;;;;;5.24;80.67;101665.72;5039912;28;20223;-69
2022/01/17 03:01:27;;;;;;;9.30;1.83;;;;;;;5.20;80.65;101672.84;5042663;28;20234;-69
2022/01/17 03:03:55;;;;;;;6.80;1.50;;;;;;;5.21;80.52;101673.72;5050106;28;20216;-70
2022/01/17 03:06:22;;;;;;;6.40;0.90;;;;;;;5.22;80.59;101705.38;5050147;28;20682;-70
2022/01/17 03:08:50;;;;;;;6.83;1.20;;;;;;;5.22;80.47;101712.44;5038816;28;20218;-68
2022/01/17 03:11:19;;;;;;;7.80;2.10;;;;;;;5.22;80.64;101726.50;5032827;28;20320;-70
2022/01/17 03:13:48;;;;;;;7.40;1.37;;;;;;;5.20;80.56;101714.22;5047855;28;20201;-69
2022/01/17 03:16:17;;;;;;;11.53;1.53;;;;;;;5.20;80.43;101719.50;5032202;28;20213;-68
2022/01/17 03:18:45;;;;;;;9.37;1.53;;;;;;;5.20;80.68;101703.66;5037276;28;20702;-70
2022/01/17 03:21:13;;;;;;;7.13;1.83;;;;;;;5.19;80.43;101702.84;5017188;28;20239;-71
2022/01/17 03:23:41;;;;;;;7.40;1.20;;;;;;;5.20;80.43;101703.66;5033711;28;20209;-71
2022/01/17 03:26:08;;;;;;;8.13;1.73;;;;;;;5.19;80.21;101687.00;5048837;28;20391;-69
2022/01/17 03:28:35;;;;;;;8.03;1.73;;;;;;;5.20;80.39;101669.34;5021737;28;20648;-69
2022/01/17 03:31:04;;;;;;;4.63;1.10;;;;;;;5.18;80.06;101669.41;5027946;28;20725;-69
2022/01/17 03:33:31;;;;;;;6.73;1.50;;;;;;;5.19;80.07;101657.94;5035166;28;20215;-69
2022/01/17 03:35:57;;;;;;;10.67;2.23;;;;;;;5.20;79.73;101657.00;5049061;28;20217;-70
2022/01/17 03:38:28;;;;;;;8.27;1.77;;;;;;;5.19;79.52;101665.00;5042974;28;20210;-69
2022/01/17 03:40:54;;;;;;;5.73;1.40;;;;;;;5.19;79.53;101671.16;5049238;28;20240;-69
2022/01/17 03:43:23;;;;;;;8.17;1.40;;;;;;;5.19;79.18;101662.34;5049686;28;20209;-69
2022/01/17 03:45:50;;;;;;;8.47;1.70;;;;;;;5.15;79.02;101661.56;5022342;28;20205;-69
2022/01/17 03:48:19;;;;;;;8.20;1.50;;;;;;;5.16;78.59;101662.41;5041115;28;20234;-69
2022/01/17 03:50:47;;;;;;;8.93;1.33;;;;;;;5.16;78.80;101650.09;5030411;28;20230;-69
2022/01/17 03:53:14;;;;;;;6.57;1.30;;;;;;;5.18;78.77;101642.13;5041007;28;20209;-71
2022/01/17 03:55:40;;;;;;;6.73;1.03;;;;;;;5.16;78.63;101634.25;5034917;28;20205;-70
2022/01/17 03:58:08;;;;;;;7.50;1.33;;;;;;;5.19;78.62;101644.72;5046763;28;20220;-69
2022/01/17 04:00:38;;;;;;;8.83;1.70;;;;;;;5.19;78.73;101642.09;5045247;28;20233;-69
2022/01/17 04:03:05;;;;;;;3.80;1.20;;;;;;;5.19;78.58;101657.06;5046766;28;20206;-69
2022/01/17 04:05:33;;;;;;;11.30;2.67;;;;;;;5.19;78.54;101663.22;5048172;28;20548;-69
2022/01/17 04:07:59;;;;;;;7.10;1.20;;;;;;;5.17;78.55;101662.38;5048786;28;20560;-69
2022/01/17 04:10:27;;;;;;;8.33;1.87;;;;;;;5.17;78.21;101665.03;5048457;28;20763;-69
2022/01/17 04:13:00;;;;;;;8.10;1.23;;;;;;;5.19;78.36;101657.06;5049120;28;20209;-69
2022/01/17 04:15:27;;;;;;;5.17;1.13;;;;;;;5.17;78.19;101656.22;5037089;28;20214;-69
2022/01/17 04:17:53;;;;;;;7.10;1.20;;;;;;;5.17;78.44;101662.38;5045899;28;20678;-69
2022/01/17 04:20:26;;;;;;;8.17;1.63;;;;;;;5.17;78.25;101665.03;5046355;28;20229;-69
2022/01/17 04:22:56;;;;;;;6.63;1.83;;;;;;;5.17;78.06;101650.94;5045442;28;20201;-69
2022/01/17 04:25:23;;;;;;;6.20;1.60;;;;;;;5.19;78.37;101636.81;5037262;28;20277;-69
2022/01/17 04:27:52;;;;;;;7.33;1.67;;;;;;;5.19;78.00;101628.88;5046880;28;20205;-68
2022/01/17 04:30:19;;;;;;;7.90;1.53;;;;;;;5.18;78.08;101627.16;5043788;28;20206;-68
2022/01/17 04:32:47;;;;;;;5.00;1.43;;;;;;;5.20;77.78;101620.03;5023237;28;20667;-70
2022/01/17 04:35:20;;;;;;;7.07;1.57;;;;;;;5.19;77.85;101623.59;5045861;28;20206;-69
2022/01/17 04:37:47;;;;;;;11.97;1.47;;;;;;;5.20;77.96;101624.44;5036004;28;20209;-69
2022/01/17 04:40:15;;;;;;;8.03;1.33;;;;;;;5.19;77.84;101638.59;5047554;28;20230;-68
2022/01/17 04:42:45;;;;;;;3.40;0.90;;;;;;;5.21;77.90;101644.66;5048606;28;20649;-69
2022/01/17 04:45:14;;;;;;;5.17;1.20;;;;;;;5.23;77.53;101667.50;5027017;28;20213;-69
2022/01/17 04:47:43;;;;;;;6.87;1.90;;;;;;;5.19;77.67;101670.28;5048169;28;20236;-69
2022/01/17 04:50:13;;;;;;;11.10;1.87;;;;;;;5.21;77.65;101671.06;5039016;28;20230;-68
2022/01/17 04:52:39;;;;;;;7.67;1.57;;;;;;;5.24;78.11;101657.78;5047747;28;20233;-69
2022/01/17 04:55:09;;;;;;;4.40;1.30;;;;;;;5.20;77.49;101664.06;5047498;28;20205;-69
2022/01/17 04:57:37;;;;;;;9.97;1.40;;;;;;;5.23;77.64;101671.91;5041103;28;20213;-70
2022/01/17 05:00:06;;;;;;;8.87;1.63;;;;;;;5.23;77.58;101656.94;5046874;28;20236;-70
2022/01/17 05:02:32;;;;;;;7.03;1.63;;;;;;;5.21;77.63;101676.34;5046871;28;20308;-69
2022/01/17 05:04:59;;;;;;;7.67;1.30;;;;;;;5.21;77.81;101668.44;5048154;28;20210;-69
2022/01/17 05:07:26;;;;;;;5.83;1.50;;;;;;;5.19;77.50;101667.63;5043605;28;20223;-69
2022/01/17 05:09:53;;;;;;;9.83;1.80;;;;;;;5.17;77.58;101662.38;5025439;28;20222;-69
2022/01/17 05:12:19;;;;;;;9.33;1.40;;;;;;;5.18;77.73;101650.06;5023061;28;20234;-69
2022/01/17 05:14:50;;;;;;;10.77;1.90;;;;;;;5.19;77.64;101657.06;5023851;28;20674;-69
2022/01/17 05:17:42;;;;;;;9.57;2.00;;;;;;;5.20;77.67;101656.13;5026564;28;20672;-69
2022/01/17 05:20:08;;;;;;;6.73;1.30;;;;;;;5.20;77.58;101662.28;5019060;28;20697;-69
2022/01/17 05:22:36;;;;;;;9.67;1.60;;;;;;;5.23;77.56;101656.94;5033827;28;20320;-69
2022/01/17 05:25:08;;;;;;;9.67;2.03;;;;;;;5.24;77.59;101666.59;5030648;28;20217;-68
2022/01/17 05:27:36;;;;;;;8.13;1.73;;;;;;;5.23;77.43;101669.25;5029019;28;20204;-70
2022/01/17 05:30:06;;;;;;;6.57;1.73;;;;;;;5.23;77.33;101662.22;5026978;28;20202;-69
2022/01/17 05:32:32;;;;;;;7.33;1.60;;;;;;;5.23;77.47;101649.00;5028051;28;20721;-72
2022/01/17 05:34:59;;;;;;;8.60;1.40;;;;;;;5.27;77.06;101657.72;5025799;28;20210;-69
2022/01/17 05:37:25;;;;;;;6.53;1.33;;;;;;;5.25;77.33;101656.88;5027457;28;20202;-68
2022/01/17 05:39:52;;;;;;;14.27;1.40;;;;;;;5.25;77.43;101670.09;5027491;28;20218;-69
2022/01/17 05:42:20;;;;;;;5.87;1.20;;;;;;;5.23;77.61;101651.66;5019768;28;20234;-72
2022/01/17 05:44:46;;;;;;;7.67;2.03;;;;;;;5.25;77.35;101651.59;5021645;28;20210;-72
2022/01/17 05:47:15;;;;;;;9.50;1.33;;;;;;;5.26;77.48;101661.28;5024770;28;20217;-69
2022/01/17 05:49:41;;;;;;;6.03;1.43;;;;;;;5.23;77.20;101634.94;5025504;28;20221;-69
2022/01/17 05:52:09;;;;;;;9.40;1.70;;;;;;;5.23;77.73;101659.56;5018280;28;20234;-69
2022/01/17 05:54:36;;;;;;;7.80;1.50;;;;;;;5.26;77.42;101655.13;5027629;28;20791;-70
2022/01/17 05:57:03;;;;;;;3.90;1.67;;;;;;;5.23;77.51;101669.25;5030698;28;20232;-68
2022/01/17 05:59:30;;;;;;;11.27;1.77;;;;;;;5.23;77.78;101666.63;5031188;28;20312;-70
2022/01/17 06:01:56;;;;;;;6.20;1.27;;;;;;;5.27;77.68;101657.72;5030806;28;20225;-70
2022/01/17 06:04:24;;;;;;;12.53;1.97;;;;;;;5.26;77.73;101647.19;5029330;28;20206;-70
2022/01/17 06:06:51;;;;;;;5.43;1.40;;;;;;;5.29;77.82;101662.97;5026938;28;20206;-68
2022/01/17 06:09:17;;;;;;;8.23;1.77;;;;;;;5.26;77.94;101658.63;5034533;28;20664;-72
2022/01/17 06:11:44;;;;;;;7.10;1.83;;;;;;;5.27;78.47;101657.72;5023761;28;20229;-69
2022/01/17 06:14:15;;;;;;;7.80;1.47;;;;;;;5.23;78.40;101687.75;5026656;28;20221;-72
2022/01/17 06:16:42;;;;;;;10.87;1.70;;;;;;;5.26;78.24;101692.97;5024730;28;20286;-71
2022/01/17 06:19:08;;;;;;;8.30;1.50;;;;;;;5.27;78.49;101694.69;5021160;28;20431;-68
2022/01/17 06:21:36;;;;;;;11.53;1.40;;;;;;;5.29;78.35;101692.03;5030072;28;20234;-71
2022/01/17 06:24:05;;;;;;;6.90;1.30;;;;;;;5.29;78.61;101687.63;5035846;28;20217;-70
2022/01/17 06:26:32;;;;;;;6.77;1.40;;;;;;;5.28;78.70;101691.16;5049458;28;20245;-70
2022/01/17 06:28:59;;;;;;;10.00;1.90;;;;;;;5.28;78.80;101696.44;5048162;28;20209;-68
2022/01/17 06:31:25;;;;;;;4.40;1.20;;;;;;;5.26;79.11;101690.31;5042780;28;20218;-72
2022/01/17 06:33:52;;;;;;;5.50;1.50;;;;;;;5.28;79.07;101688.50;5042266;28;20206;-72
2022/01/17 06:36:18;;;;;;;8.30;1.90;;;;;;;5.28;79.26;101680.59;5046767;28;20294;-72
2022/01/17 06:38:46;;;;;;;7.90;1.50;;;;;;;5.27;79.37;101689.41;5050290;28;20209;-72
2022/01/17 06:41:13;;;;;;;4.87;1.37;;;;;;;5.29;79.02;101676.19;5048234;28;20244;-72
2022/01/17 06:43:39;;;;;;;5.03;1.40;;;;;;;5.26;79.22;101661.28;5048447;28;20211;-73
2022/01/17 06:46:06;;;;;;;6.80;1.47;;;;;;;5.26;79.63;101649.84;5040340;28;20210;-72
2022/01/17 06:48:32;;;;;;;4.60;1.40;;;;;;;5.26;79.05;101666.56;5027337;28;20720;-71
2022/01/17 06:50:59;;;;;;;6.10;1.43;;;;;;;5.29;79.41;101665.63;5037264;28;20237;-72
2022/01/17 06:53:27;;;;;;;6.93;1.50;;;;;;;5.29;79.40;101679.69;5049018;28;20216;-72
2022/01/17 06:55:55;;;;;;;7.57;1.30;;;;;;;5.27;79.38;101689.41;5050781;28;20270;-72
2022/01/17 06:58:22;;;;;;;8.67;1.97;;;;;;;5.27;79.44;101681.50;5049776;28;20216;-72
2022/01/17 07:00:48;;;;;;;5.67;1.40;;;;;;;5.26;79.50;101692.09;5049801;28;20233;-72
2022/01/17 07:03:15;;;;;;;9.97;1.90;;;;;;;5.29;79.54;101694.66;5049875;28;20210;-72
2022/01/17 07:05:42;;;;;;;4.30;1.40;;;;;;;5.32;79.54;101710.44;5049736;28;20890;-71
2022/01/17 07:08:08;;;;;;;5.83;1.17;;;;;;;5.33;79.23;101726.25;5050935;28;20301;-72
2022/01/17 07:10:35;;;;;;;6.80;1.67;;;;;;;5.35;79.23;101750.88;5049599;28;20208;-72
2022/01/17 07:13:03;;;;;;;11.00;1.30;;;;;;;5.35;78.98;101755.28;5049710;28;20221;-72
2022/01/17 07:15:30;;;;;;;6.27;1.20;;;;;;;5.35;79.65;101753.50;5046440;28;20663;-71
2022/01/17 07:17:56;;;;;;;8.10;1.03;;;;;;;5.39;79.47;101719.94;5048527;28;20619;-72
2022/01/17 07:20:23;;;;;;;3.67;1.17;;;;;;;5.39;79.13;101706.72;5046629;28;20244;-72
2022/01/17 07:22:50;;;;;;;5.40;1.07;;;;;;;5.41;79.10;101665.28;5045886;28;20217;-72
2022/01/17 07:25:16;;;;;;;5.40;1.10;;;;;;;5.41;79.31;101660.00;5049814;28;20209;-71
2022/01/17 07:27:44;;;;;;;8.00;1.30;;;;;;;5.43;79.36;101696.06;5048917;28;20251;-71
2022/01/17 07:30:12;;;;;;;8.63;1.37;;;;;;;5.47;79.03;101694.19;5039138;28;20271;-72
2022/01/17 07:32:40;;;;;;;7.00;1.53;;;;;;;5.47;79.28;101697.72;5025962;28;20223;-71
2022/01/17 07:35:07;;;;;;;5.70;0.80;;;;;;;5.47;79.43;101703.00;5025197;28;20234;-72
2022/01/17 07:37:34;;;;;;;7.93;1.10;;;;;;;5.48;79.29;101694.16;5011217;28;20277;-72
2022/01/17 07:40:02;;;;;;;5.13;0.97;;;;;;;5.50;79.29;101692.34;5026038;28;20230;-71
2022/01/17 07:42:28;;;;;;;3.37;1.00;;;;;;;5.51;79.00;101678.25;5018267;28;20226;-72
2022/01/17 07:44:57;;;;;;;4.60;1.27;;;;;;;5.52;79.19;101681.75;5010658;28;20206;-71
2022/01/17 07:47:39;;;;;;;9.33;1.40;;;;;;;5.52;79.24;101687.91;5015392;28;20253;-71
2022/01/17 07:50:07;;;;;;;5.23;1.17;;;;;;;5.54;79.33;101677.28;5021349;28;20242;-72
2022/01/17 07:52:34;;;;;;;7.17;1.20;;;;;;;5.52;79.37;101687.91;5013474;28;20257;-72
2022/01/17 07:55:00;;;;;;;7.47;1.30;;;;;;;5.54;79.73;101672.88;5019745;28;20217;-71
2022/01/17 07:57:27;;;;;;;4.50;1.57;;;;;;;5.53;79.74;101679.06;5033136;28;20201;-71
2022/01/17 07:59:53;;;;;;;4.80;1.30;;;;;;;5.53;80.13;101694.94;5046088;28;20232;-72
2022/01/17 08:02:20;;;;;;;4.00;1.10;;;;;;;5.53;80.27;101702.84;5044171;28;20596;-72
2022/01/17 08:04:48;;;;;;;6.43;1.10;;;;;;;5.55;80.23;101706.28;5035916;28;20686;-72
2022/01/17 08:07:15;;;;;;;3.20;0.83;;;;;;;5.54;80.28;101688.72;5048861;28;20209;-71
2022/01/17 08:09:42;;;;;;;6.77;1.50;;;;;;;5.56;80.65;101692.19;5048385;28;20279;-72
2022/01/17 08:12:10;;;;;;;4.53;1.60;;;;;;;5.54;80.75;101683.44;5070134;22;20264;-70
2022/01/17 08:14:37;;;;;;;6.17;1.47;;;;;;;5.57;81.18;101688.63;5052181;28;20651;-71
2022/01/17 08:17:05;;;;;;;5.53;1.40;;;;;;;5.60;81.13;101687.69;5050684;28;20216;-71
2022/01/17 08:19:31;;;;;;;5.63;1.53;;;;;;;5.62;81.18;101679.72;5061711;28;20624;-70
2022/01/17 08:21:59;;;;;;;5.03;1.20;;;;;;;5.64;81.21;101683.19;5040780;28;20243;-71
2022/01/17 08:24:26;;;;;;;8.97;2.90;;;;;;;5.67;81.06;101672.53;5029594;28;20210;-71
2022/01/17 08:26:52;;;;;;;8.50;3.30;;;;;;;5.67;81.21;101662.84;5039321;28;20698;-71
2022/01/17 08:29:20;;;;;;;8.20;2.60;;;;;;;5.68;81.04;101654.00;5029945;28;20210;-70
2022/01/17 08:31:47;;;;;;;9.63;2.63;;;;;;;5.71;81.51;101656.56;5029619;28;20226;-70
2022/01/17 08:34:14;;;;;;;5.97;1.63;;;;;;;5.72;81.77;101660.09;5042753;28;20209;-71
2022/01/17 08:36:40;;;;;;;4.07;1.43;;;;;;;5.71;82.05;101671.56;5035242;28;20201;-71
2022/01/17 08:39:10;;;;;;;8.33;1.90;;;;;;;5.73;81.95;101652.06;5037509;28;20590;-71
2022/01/17 08:41:37;;;;;;;4.87;2.00;;;;;;;5.75;82.02;101683.75;5032540;28;20230;-71
2022/01/17 08:44:04;;;;;;;5.03;2.10;;;;;;;5.78;81.99;101689.84;5033597;28;20206;-71
2022/01/17 08:46:31;;;;;;;8.57;2.30;;;;;;;5.80;82.10;101679.22;5032629;28;20596;-71
2022/01/17 08:48:57;;;;;;;7.93;2.03;;;;;;;5.79;82.12;101680.13;5040059;28;20207;-71
2022/01/17 08:51:24;;;;;;;7.53;1.70;;;;;;;5.80;82.80;101679.22;5031310;28;20226;-71
2022/01/17 08:53:50;;;;;;;5.83;2.37;;;;;;;5.82;82.32;101682.69;5029656;28;20237;-71
2022/01/17 08:56:18;;;;;;;5.97;1.70;;;;;;;5.80;83.04;101681.88;5033423;28;20214;-70
2022/01/17 08:58:45;;;;;;;7.67;2.00;;;;;;;5.82;83.22;101688.84;5032979;28;20202;-71
2022/01/17 09:01:13;;;;;;;8.53;2.07;;;;;;;5.85;82.93;101709.06;5032999;28;20238;-70
2022/01/17 09:03:40;;;;;;;5.13;1.90;;;;;;;5.84;83.21;101713.47;5032969;28;20202;-71
2022/01/17 09:06:06;;;;;;;5.83;1.70;;;;;;;5.85;83.72;101694.06;5032197;28;20683;-70
2022/01/17 09:08:33;;;;;;;5.83;2.40;;;;;;;5.87;83.59;101683.44;5033525;28;20210;-71
2022/01/17 09:11:00;;;;;;;7.57;1.90;;;;;;;5.90;83.86;101691.34;5033022;28;20214;-71
2022/01/17 09:13:28;;;;;;;3.23;1.43;;;;;;;5.89;83.75;101700.19;5032944;28;20615;-72
2022/01/17 09:15:54;;;;;;;6.07;1.53;;;;;;;5.93;83.65;101712.38;5026370;28;20203;-70
2022/01/17 09:18:22;;;;;;;3.67;1.30;;;;;;;5.95;83.60;101730.84;5024221;28;20202;-71
2022/01/17 09:20:49;;;;;;;4.30;1.70;;;;;;;5.95;84.24;101702.63;5020237;28;20229;-70
2022/01/17 09:23:15;;;;;;;3.07;1.30;;;;;;;5.97;84.44;101690.25;5017930;28;20206;-71
2022/01/17 09:25:42;;;;;;;5.83;1.50;;;;;;;5.97;84.56;101692.00;5033778;28;20208;-70
2022/01/17 09:28:09;;;;;;;6.17;1.33;;;;;;;5.97;85.00;101703.47;5039214;28;20664;-70
2022/01/17 09:30:37;;;;;;;4.13;1.33;;;;;;;6.00;84.90;101713.94;5037773;28;20580;-70
2022/01/17 09:33:05;;;;;;;2.53;1.40;;;;;;;6.04;84.58;101723.53;5033573;28;20234;-70
2022/01/17 09:35:32;;;;;;;5.33;1.17;;;;;;;6.03;84.86;101705.94;5026668;28;20206;-71
2022/01/17 09:37:59;;;;;;;4.40;1.40;;;;;;;6.07;84.64;101709.38;5041467;28;20210;-70
2022/01/17 09:40:26;;;;;;;3.83;1.00;;;;;;;6.07;85.40;101694.38;5029679;28;20241;-70
2022/01/17 09:42:54;;;;;;;5.10;1.27;;;;;;;6.08;85.17;101727.84;5032672;28;20226;-71
2022/01/17 09:45:23;;;;;;;3.43;1.20;;;;;;;6.12;85.36;101755.91;5031596;28;20221;-70
2022/01/17 09:47:52;;;;;;;4.77;0.90;;;;;;;6.13;84.99;101731.22;5031760;28;20210;-70
2022/01/17 09:50:21;;;;;;;2.53;0.97;;;;;;;6.18;85.28;101739.91;5042166;28;20206;-72
2022/01/17 09:52:49;;;;;;;6.27;1.20;;;;;;;6.21;85.01;101733.66;5038969;28;20234;-70
2022/01/17 09:55:21;;;;;;;1.80;1.10;;;;;;;6.25;85.15;101740.59;5041629;28;20210;-70
2022/01/17 09:57:52;;;;;;;1.87;0.60;;;;;;;6.28;85.31;101766.94;5031693;28;20214;-71
2022/01/17 10:00:24;;;;;;;3.30;1.23;;;;;;;6.32;85.19;101743.91;5031295;28;20210;-70
2022/01/17 10:02:52;;;;;;;3.77;1.13;;;;;;;6.36;85.13;101729.69;5032372;28;20277;-69
2022/01/17 10:05:19;;;;;;;3.33;1.33;;;;;;;6.40;84.79;101728.72;5043161;28;20586;-70
2022/01/17 10:07:57;;;;;;;8.13;1.33;;;;;;;6.42;85.17;101754.22;5031712;28;20213;-70
2022/01/17 10:10:46;;;;;;;5.20;1.40;;;;;;;6.47;85.29;101759.34;5039003;28;20689;-71
2022/01/17 10:13:18;;;;;;;4.50;1.40;;;;;;;6.48;84.79;101747.88;5039278;28;20301;-70
2022/01/17 10:15:59;;;;;;;5.77;1.80;;;;;;;6.51;84.79;101738.06;5031229;28;20237;-71
2022/01/17 10:18:31;;;;;;;6.20;1.83;;;;;;;6.49;85.77;101718.72;5032285;28;20209;-71
2022/01/17 10:21:03;;;;;;;5.63;1.77;;;;;;;6.48;86.04;101726.69;5030419;28;20238;-71
2022/01/17 10:26:47;;;;;;;3.97;1.40;;;;;;;6.51;86.17;101742.47;5018257;28;20293;-71
2022/01/17 10:29:36;;;;;;;5.30;1.57;;;;;;;6.54;85.88;101716.81;5023484;28;20202;-71
2022/01/17 10:34:55;;;;;;;6.50;1.90;;;;;;;6.53;86.74;101769.78;5030327;28;20220;-71
2022/01/17 10:37:24;;;;;;;7.17;2.00;;;;;;;6.54;87.31;101753.84;5028966;28;20234;-71
2022/01/17 10:39:57;;;;;;;4.63;1.67;;;;;;;6.57;86.94;101732.59;5038586;28;20606;-70
2022/01/17 10:42:29;;;;;;;6.13;2.20;;;;;;;6.57;87.03;101739.66;5025830;28;20276;-71
2022/01/17 10:45:03;;;;;;;5.37;2.00;;;;;;;6.60;87.38;101760.75;5028827;28;20210;-71
2022/01/17 10:47:30;;;;;;;6.27;2.13;;;;;;;6.60;87.20;101772.22;5031141;28;20214;-71
2022/01/17 10:50:01;;;;;;;6.93;1.80;;;;;;;6.63;86.80;101775.69;5038038;28;20672;-70
2022/01/17 10:52:34;;;;;;;5.67;2.10;;;;;;;6.67;87.30;101774.66;5030674;28;20222;-70
2022/01/17 10:55:06;;;;;;;10.03;3.20;;;;;;;6.69;87.24;101757.81;5030669;28;20214;-71
2022/01/17 10:57:39;;;;;;;10.47;2.83;;;;;;;6.72;86.59;101780.69;5019961;28;20612;-69
2022/01/17 11:00:08;;;;;;;6.73;2.60;;;;;;;6.74;86.79;101792.97;5031912;28;20210;-71
2022/01/17 11:02:36;;;;;;;11.07;3.47;;;;;;;6.76;86.93;101783.22;5031580;28;20234;-71
2022/01/17 11:05:06;;;;;;;10.90;3.47;;;;;;;6.78;87.27;101791.13;5030703;28;20210;-71
2022/01/17 11:07:39;;;;;;;13.17;2.87;;;;;;;6.83;87.13;101758.28;5028921;28;20640;-70
2022/01/17 11:10:08;;;;;;;9.93;2.73;;;;;;;6.84;87.02;101783.84;5031771;28;20210;-70
2022/01/17 11:12:35;;;;;;;9.37;2.53;;;;;;;6.86;86.82;101819.09;5029130;28;20329;-70
2022/01/17 11:15:01;;;;;;;9.70;5.37;;;;;;;6.89;86.82;101824.31;5038702;28;20217;-71
2022/01/17 11:17:34;;;;;;;9.33;4.80;;;;;;;6.93;87.31;101794.19;5045639;28;20565;-71
2022/01/17 11:20:06;;;;;;;11.73;3.17;;;;;;;6.91;87.13;101774.81;5035924;28;20332;-70
2022/01/17 11:22:35;;;;;;;9.60;3.00;;;;;;;6.90;88.36;101757.19;5036136;28;20230;-70
2022/01/17 11:25:04;;;;;;;7.47;3.17;;;;;;;6.91;88.28;101773.94;5030940;28;20221;-71
2022/01/17 11:27:30;;;;;;;9.33;2.90;;;;;;;6.91;88.30;101779.25;5030223;28;20217;-71
2022/01/17 11:29:57;;;;;;;9.37;2.87;;;;;;;6.91;88.71;101780.09;5030778;28;20210;-71
2022/01/17 11:32:24;;;;;;;9.47;3.00;;;;;;;6.93;89.21;101767.69;5029947;28;20726;-71
2022/01/17 11:34:51;;;;;;;8.07;2.80;;;;;;;6.93;88.72;101788.88;5033322;28;20215;-70
2022/01/17 11:37:19;;;;;;;8.27;3.10;;;;;;;6.92;88.67;101789.78;5029987;28;20206;-71
2022/01/17 11:39:49;;;;;;;13.53;4.13;;;;;;;6.92;89.36;101787.13;5029695;28;20206;-71
2022/01/17 11:42:36;;;;;;;9.40;2.97;;;;;;;6.95;89.33;101778.25;5029011;28;20313;-72
2022/01/17 11:45:26;;;;;;;6.60;2.70;;;;;;;6.95;89.43;101776.47;5027918;28;20584;-71
2022/01/17 11:47:54;;;;;;;6.77;2.87;;;;;;;6.97;89.07;101773.78;5037242;28;20213;-74
2022/01/17 11:50:42;;;;;;;7.17;2.77;;;;;;;6.94;89.98;101782.66;5034834;28;20292;-72
2022/01/17 11:53:38;;;;;;;9.37;2.90;;;;;;;6.95;90.11;101791.47;5029242;28;20291;-72